Time;durP1;ratioP1;P1;durP2;ratioP2;P2;SDS_P1;SDS_P2;PMS_P1;PMS_P2;Temp;Humidity;BMP_temperature;BMP_pressure;BME280_temperature;BME280_humidity;BME280_pressure;Samples;Min_cycle;Max_cycle;Signal;HPM_P1;HPM_P2
2022/09/06 04:39:23;;;;;;;13.83;4.65;;;;;;;8.17;78.18;100891.19;1569114;89;21255;-45
2022/09/06 04:41:50;;;;;;;12.35;5.62;;;;;;;8.29;78.27;100885.32;1603022;87;21657;-46
2022/09/06 04:44:16;;;;;;;12.68;4.97;;;;;;;8.42;78.18;100879.54;1599417;88;21017;-46
2022/09/06 04:46:43;;;;;;;17.17;8.08;;;;;;;8.53;78.13;100881.91;1601503;88;21049;-46
2022/09/06 04:49:09;;;;;;;15.80;7.70;;;;;;;8.65;78.17;100881.67;1600833;88;21084;-46
2022/09/06 04:51:38;;;;;;;14.30;7.28;;;;;;;8.74;78.18;100886.59;1601419;88;20997;-51
2022/09/06 04:54:05;;;;;;;16.50;9.03;;;;;;;8.84;78.09;100885.03;1610542;88;21120;-45
2022/09/06 04:56:32;;;;;;;10.05;5.47;;;;;;;8.98;78.05;100881.33;1611027;87;21053;-51
2022/09/06 04:58:59;;;;;;;13.25;5.85;;;;;;;9.10;77.73;100881.94;1611689;87;21600;-51
2022/09/06 05:01:25;;;;;;;14.65;5.10;;;;;;;9.19;77.56;100884.70;1610649;87;21511;-47
2022/09/06 05:03:52;;;;;;;7.72;4.70;;;;;;;9.30;77.37;100885.75;1607930;87;21085;-42
2022/09/06 05:06:21;;;;;;;7.30;4.40;;;;;;;9.37;77.35;100883.66;1614855;87;21059;-42
2022/09/06 05:08:48;;;;;;;10.88;5.85;;;;;;;9.46;77.43;100885.55;1595825;88;21085;-47
2022/09/06 05:11:17;;;;;;;8.65;5.03;;;;;;;9.54;77.49;100890.00;1604179;88;21510;-42
2022/09/06 05:13:45;;;;;;;8.50;3.72;;;;;;;9.62;77.69;100884.87;1622281;88;21061;-47
2022/09/06 05:16:14;;;;;;;10.25;5.58;;;;;;;9.70;77.87;100880.64;1612676;88;21045;-41
2022/09/06 05:18:40;;;;;;;9.60;5.35;;;;;;;9.81;77.98;100880.78;1610932;88;21141;-47
2022/09/06 05:21:08;;;;;;;14.47;4.47;;;;;;;9.95;78.10;100880.93;1605778;88;21014;-46
2022/09/06 05:23:34;;;;;;;7.30;4.08;;;;;;;10.06;77.65;100881.50;1606773;87;21495;-46
2022/09/06 05:26:03;;;;;;;5.37;4.03;;;;;;;10.17;77.88;100880.31;1606415;88;21038;-47
2022/09/06 05:28:31;;;;;;;4.95;3.37;;;;;;;10.29;77.67;100877.86;1602118;88;21081;-47
2022/09/06 05:31:30;;;;;;;5.03;3.40;;;;;;;10.40;77.42;100874.05;1596671;88;21506;-47
2022/09/06 05:34:00;;;;;;;4.67;3.33;;;;;;;10.49;77.04;100879.36;1589679;88;21093;-47
2022/09/06 05:36:28;;;;;;;8.45;3.50;;;;;;;10.62;77.10;100870.78;1598682;86;21048;-45
2022/09/06 05:38:56;;;;;;;6.28;3.50;;;;;;;10.76;77.04;100876.12;1597827;87;21078;-43
2022/09/06 05:41:24;;;;;;;7.33;3.40;;;;;;;10.88;76.79;100877.52;1595647;87;21442;-43
2022/09/06 05:43:51;;;;;;;5.35;3.33;;;;;;;10.99;77.03;100876.73;1602047;87;21105;-42
2022/09/06 05:46:19;;;;;;;4.72;3.30;;;;;;;11.09;76.94;100875.52;1598410;87;21113;-48
2022/09/06 05:49:03;;;;;;;4.83;3.25;;;;;;;11.19;76.63;100873.41;1596630;87;21065;-43
2022/09/06 05:51:30;;;;;;;9.58;3.15;;;;;;;11.31;76.57;100877.85;1603329;86;21639;-43
2022/09/06 05:53:57;;;;;;;4.83;3.37;;;;;;;11.43;76.66;100866.56;1601789;87;21084;-43
2022/09/06 05:56:24;;;;;;;4.62;2.90;;;;;;;11.60;76.10;100871.89;1599602;87;21077;-48
2022/09/06 05:58:52;;;;;;;5.05;2.72;;;;;;;11.77;75.57;100868.02;1602658;88;21074;-47
2022/09/06 06:01:23;;;;;;;3.75;2.90;;;;;;;11.94;75.30;100866.36;1604603;87;21069;-48
2022/09/06 06:03:56;;;;;;;3.33;2.40;;;;;;;12.12;74.69;100868.20;1606348;87;21081;-48
2022/09/06 06:06:23;;;;;;;3.80;2.70;;;;;;;12.31;73.39;100868.67;1596013;87;21077;-48
2022/09/06 06:08:50;;;;;;;6.58;3.00;;;;;;;12.46;72.33;100866.48;1604305;88;21115;-42
2022/09/06 06:11:16;;;;;;;9.73;2.77;;;;;;;12.61;72.12;100874.39;1604903;87;21395;-42
2022/09/06 06:13:43;;;;;;;7.37;2.98;;;;;;;12.77;71.89;100867.41;1605012;87;21602;-48
2022/09/06 06:20:10;;;;;;;5.35;2.30;;;;;;;13.12;69.06;100865.20;1598993;87;21761;-41
2022/09/06 06:22:37;;;;;;;4.37;2.40;;;;;;;13.31;67.26;100866.50;1597914;87;21153;-42
2022/09/06 06:25:12;;;;;;;3.42;2.37;;;;;;;13.38;65.92;100873.05;1606316;87;21097;-47
2022/09/06 06:27:41;;;;;;;8.43;2.30;;;;;;;13.38;64.92;100876.55;1603006;87;21165;-42
2022/09/06 06:30:09;;;;;;;2.92;2.00;;;;;;;13.43;63.92;100880.49;1600203;88;21028;-41
2022/09/06 06:32:40;;;;;;;2.27;1.60;;;;;;;13.48;62.73;100882.67;1601303;87;21596;-46
2022/09/06 06:35:08;;;;;;;5.00;2.50;;;;;;;13.55;63.83;100883.08;1605519;87;21022;-42
2022/09/06 06:37:35;;;;;;;7.35;2.72;;;;;;;13.68;63.26;100880.84;1608475;87;21105;-47
2022/09/06 06:40:04;;;;;;;6.62;2.75;;;;;;;13.78;62.23;100884.32;1613661;86;21020;-47
2022/09/06 06:42:31;;;;;;;5.80;2.40;;;;;;;13.84;62.39;100883.86;1588495;88;21082;-42
2022/09/06 06:44:57;;;;;;;3.40;1.98;;;;;;;13.92;61.55;100892.18;1617444;86;20970;-42
2022/09/06 06:47:24;;;;;;;5.70;2.35;;;;;;;13.96;61.13;100888.63;1621929;86;21076;-47
2022/09/06 06:49:51;;;;;;;10.65;2.30;;;;;;;14.02;60.52;100889.91;1615538;86;21059;-42
2022/09/06 06:52:20;;;;;;;12.58;3.15;;;;;;;14.05;60.28;100885.97;1626966;86;21109;-42
2022/09/06 06:54:48;;;;;;;5.15;2.00;;;;;;;14.07;59.68;100896.03;1631723;86;21022;-42
2022/09/06 06:57:14;;;;;;;10.85;2.35;;;;;;;14.07;59.25;100891.64;1628793;86;21053;-47
2022/09/06 06:59:41;;;;;;;3.58;2.35;;;;;;;14.08;59.58;100894.70;1616300;86;21457;-47
2022/09/06 07:02:08;;;;;;;5.70;2.40;;;;;;;14.14;58.84;100901.69;1616851;86;21120;-47
2022/09/06 07:04:35;;;;;;;3.70;2.47;;;;;;;14.16;59.35;100896.00;1625795;86;21063;-42
2022/09/06 07:07:01;;;;;;;2.80;2.00;;;;;;;14.22;59.74;100894.65;1621122;86;21050;-47
2022/09/06 07:09:28;;;;;;;4.25;1.80;;;;;;;14.28;59.29;100899.88;1625213;86;21036;-47
2022/09/06 07:11:55;;;;;;;8.73;2.17;;;;;;;14.37;57.87;100894.55;1633665;87;21098;-47
2022/09/06 07:14:24;;;;;;;3.87;1.85;;;;;;;14.40;58.13;100900.25;1631039;87;20994;-47
2022/09/06 07:16:57;;;;;;;5.72;2.15;;;;;;;14.42;58.67;100891.02;1624068;87;21614;-42
2022/09/06 07:19:19;;;;;;;3.00;1.90;;;;;;;14.47;57.57;100895.41;1615326;87;20990;-41
2022/09/06 07:21:46;;;;;;;4.40;2.25;;;;;;;14.52;57.98;100895.38;1617245;87;21444;-42
2022/09/06 07:24:13;;;;;;;8.60;1.75;;;;;;;14.55;57.62;100889.66;1633853;87;21141;-42
2022/09/06 07:26:40;;;;;;;2.17;1.70;;;;;;;14.60;56.62;100892.23;1629106;87;21002;-41
2022/09/06 07:29:07;;;;;;;1.62;1.40;;;;;;;14.69;56.40;100898.77;1632283;87;21392;-42
2022/09/06 07:31:36;;;;;;;2.58;1.52;;;;;;;14.74;56.21;100892.16;1635571;87;20978;-47
2022/09/06 07:34:04;;;;;;;2.90;1.70;;;;;;;14.78;54.28;100888.59;1620664;87;21137;-47
2022/09/06 07:36:31;;;;;;;4.25;1.40;;;;;;;14.78;53.03;100899.13;1620522;86;21079;-47
2022/09/06 07:38:58;;;;;;;3.08;1.87;;;;;;;14.75;53.84;100894.77;1631793;87;21070;-47
2022/09/06 07:41:24;;;;;;;8.48;2.20;;;;;;;14.82;54.18;100890.33;1599297;87;21438;-47
2022/09/06 07:43:54;;;;;;;6.37;2.00;;;;;;;14.95;53.95;100892.41;1602745;87;21076;-47
2022/09/06 07:46:22;;;;;;;4.78;1.62;;;;;;;15.06;52.31;100895.38;1601967;87;21090;-42
2022/09/06 07:48:52;;;;;;;6.40;2.10;;;;;;;15.02;51.58;100896.32;1583618;88;21986;-42
2022/09/06 07:51:20;;;;;;;4.55;2.35;;;;;;;14.97;52.08;100907.78;1601567;88;21070;-47
2022/09/06 07:53:51;;;;;;;3.70;1.52;;;;;;;14.99;51.63;100895.45;1600532;87;21124;-43
2022/09/06 07:56:25;;;;;;;5.45;1.67;;;;;;;15.00;51.77;100894.12;1604256;87;20986;-43
2022/09/06 07:58:49;;;;;;;3.00;1.50;;;;;;;15.15;52.90;100893.99;1595512;86;21073;-47
2022/09/06 08:01:30;;;;;;;2.75;1.55;;;;;;;15.35;50.62;100893.78;1599257;87;21025;-45
2022/09/06 08:03:59;;;;;;;2.08;1.45;;;;;;;15.38;50.44;100892.45;1607957;87;21966;-42
2022/09/06 08:06:28;;;;;;;3.92;1.47;;;;;;;15.30;50.05;100894.72;1582295;88;21518;-46
2022/09/06 08:08:56;;;;;;;5.67;1.50;;;;;;;15.23;50.67;100895.23;1596139;88;21633;-46
2022/09/06 08:11:27;;;;;;;2.55;1.25;;;;;;;15.24;50.71;100903.56;1599627;87;21424;-41
2022/09/06 08:13:55;;;;;;;1.72;1.20;;;;;;;15.22;50.72;100892.17;1598376;87;21401;-44
2022/09/06 08:16:24;;;;;;;2.25;1.12;;;;;;;15.17;49.71;100897.92;1598874;87;21033;-42
2022/09/06 08:18:59;;;;;;;6.65;1.20;;;;;;;15.00;49.64;100894.12;1599044;87;21410;-42
2022/09/06 08:21:30;;;;;;;3.40;1.40;;;;;;;14.85;49.97;100895.14;1600885;87;21024;-47
2022/09/06 08:24:02;;;;;;;3.25;1.22;;;;;;;14.87;50.09;100895.98;1581238;88;21098;-42
2022/09/06 08:26:33;;;;;;;4.37;1.57;;;;;;;14.94;49.38;100888.91;1602196;87;21061;-46
2022/09/06 08:29:05;;;;;;;1.47;1.37;;;;;;;14.98;49.41;100887.13;1581062;88;21183;-43
2022/09/06 08:31:33;;;;;;;3.87;1.20;;;;;;;15.07;49.73;100883.95;1602179;87;21545;-47
2022/09/06 08:34:01;;;;;;;2.10;1.20;;;;;;;15.24;49.01;100878.52;1597054;87;21496;-47
2022/09/06 08:36:29;;;;;;;0.95;0.85;;;;;;;15.26;48.56;100874.13;1607727;87;21509;-46
2022/09/06 08:39:00;;;;;;;2.27;1.27;;;;;;;15.22;47.99;100872.84;1597660;88;22069;-46
2022/09/06 08:42:04;;;;;;;2.00;1.22;;;;;;;15.18;47.84;100878.13;1580232;86;21028;-46
2022/09/06 08:44:45;;;;;;;1.70;0.88;;;;;;;15.11;47.82;100878.22;1577944;88;21451;-46
2022/09/06 08:47:13;;;;;;;1.22;0.90;;;;;;;14.97;47.04;100873.09;1578924;88;21480;-47
2022/09/06 08:49:56;;;;;;;1.35;1.20;;;;;;;14.93;46.77;100867.84;1574771;89;21147;-47
2022/09/06 08:53:01;;;;;;;3.42;1.00;;;;;;;15.00;47.14;100872.17;1580498;89;21072;-43
2022/09/06 08:55:53;;;;;;;3.85;0.90;;;;;;;15.10;47.40;100868.13;1569485;89;21096;-43
2022/09/06 08:59:06;;;;;;;1.03;0.93;;;;;;;15.23;46.73;100857.01;1573418;89;21607;-43
2022/09/06 09:02:08;;;;;;;2.30;1.10;;;;;;;15.40;45.20;100856.39;1574604;89;21064;-43
2022/09/06 09:04:40;;;;;;;7.15;1.22;;;;;;;15.50;44.90;100855.85;1524908;92;21944;-47
2022/09/06 09:07:48;;;;;;;1.30;1.02;;;;;;;15.34;45.75;100864.81;1525282;92;21416;-47
2022/09/06 09:10:32;;;;;;;1.67;1.00;;;;;;;15.17;46.25;100867.17;1527637;92;21089;-48
2022/09/06 09:13:02;;;;;;;1.98;1.15;;;;;;;14.98;45.67;100859.46;1529424;91;21143;-42
2022/09/06 09:15:29;;;;;;;2.25;0.90;;;;;;;14.86;46.13;100854.73;1528898;92;21088;-42
2022/09/06 09:17:56;;;;;;;0.75;0.75;;;;;;;14.86;45.35;100849.91;1523865;92;21127;-43
2022/09/06 09:20:27;;;;;;;10.40;0.95;;;;;;;14.95;45.08;100857.72;1522613;92;21094;-46
2022/09/06 09:23:02;;;;;;;1.65;1.20;;;;;;;15.08;44.38;100869.04;1526602;91;21439;-45
2022/09/06 09:25:31;;;;;;;6.55;0.98;;;;;;;15.10;44.27;100864.17;1547995;89;21447;-49
2022/09/06 09:28:17;;;;;;;0.80;0.80;;;;;;;15.06;44.59;100872.11;1534492;92;21761;-43
2022/09/06 09:30:54;;;;;;;1.20;0.60;;;;;;;15.01;44.71;100863.38;1526574;91;21364;-41
2022/09/06 09:33:31;;;;;;;1.77;0.95;;;;;;;15.11;44.90;100865.04;1526706;91;21757;-43
2022/09/06 09:36:00;;;;;;;2.20;1.15;;;;;;;15.24;44.51;100864.47;1527122;92;21563;-43
2022/09/06 09:38:30;;;;;;;2.92;0.60;;;;;;;15.22;43.70;100863.17;1524010;92;21103;-43
2022/09/06 09:41:00;;;;;;;1.15;0.70;;;;;;;15.17;44.66;100857.94;1562360;86;21069;-50
2022/09/06 09:43:32;;;;;;;1.42;0.80;;;;;;;15.24;43.00;100860.06;1605513;86;21544;-50
2022/09/06 09:46:16;;;;;;;0.60;0.60;;;;;;;15.28;43.06;100860.92;1613083;86;21034;-50
2022/09/06 09:49:08;;;;;;;3.42;0.65;;;;;;;15.28;42.95;100853.88;1585610;88;21053;-45
2022/09/06 09:51:45;;;;;;;0.75;0.55;;;;;;;15.30;42.52;100866.59;1613121;87;21010;-45
2022/09/06 09:54:13;;;;;;;3.87;1.62;;;;;;;15.36;42.68;100862.57;1606140;87;21065;-45
2022/09/06 09:56:54;;;;;;;1.07;0.70;;;;;;;15.55;42.91;100854.03;1607662;87;21073;-46
2022/09/06 09:59:35;;;;;;;1.32;0.60;;;;;;;15.74;43.01;100855.16;1601658;87;21384;-44
2022/09/06 10:02:29;;;;;;;2.75;0.80;;;;;;;15.89;42.71;100862.90;1606643;86;21679;-45
2022/09/06 10:05:09;;;;;;;2.58;0.68;;;;;;;15.84;42.49;100862.08;1609590;87;21485;-44
2022/09/06 10:07:48;;;;;;;1.80;0.70;;;;;;;15.68;43.10;100867.98;1602855;87;21076;-50
2022/09/06 10:10:25;;;;;;;1.17;0.65;;;;;;;15.65;42.78;100871.55;1602208;87;21042;-48
2022/09/06 10:13:18;;;;;;;0.45;0.45;;;;;;;15.62;42.40;100868.92;1606636;87;21069;-44
2022/09/06 10:15:45;;;;;;;;;;;;;;;15.58;42.38;100865.85;1600252;87;21377;-49
2022/09/06 10:18:42;;;;;;;2.33;0.72;;;;;;;15.58;42.53;100864.53;1606211;87;20111;-49
2022/09/06 10:21:14;;;;;;;0.65;0.65;;;;;;;15.61;42.53;100863.20;1616220;87;21453;-49
2022/09/06 10:24:03;;;;;;;1.72;0.90;;;;;;;15.75;42.53;100859.09;1607375;87;21078;-49
2022/09/06 10:26:51;;;;;;;1.60;0.75;;;;;;;15.86;41.93;100855.88;1604409;87;21038;-49
2022/09/06 10:29:29;;;;;;;7.90;0.80;;;;;;;15.93;42.15;100864.58;1609634;87;21049;-49
2022/09/06 10:32:25;;;;;;;1.35;0.95;;;;;;;15.91;42.33;100857.14;1616242;87;21085;-49
2022/09/06 10:35:21;;;;;;;1.02;0.70;;;;;;;15.94;42.52;100859.31;1595730;87;21053;-51
2022/09/06 10:37:59;;;;;;;1.32;0.80;;;;;;;15.90;41.95;100866.83;1600990;87;21719;-51
2022/09/06 10:41:12;;;;;;;1.27;1.17;;;;;;;15.80;42.06;100859.05;1613194;87;21145;-43
2022/09/06 10:43:46;;;;;;;1.32;1.07;;;;;;;15.80;42.22;100863.87;1601969;87;21532;-43
2022/09/06 10:46:14;;;;;;;2.00;0.90;;;;;;;16.08;41.11;100859.56;1603958;87;21079;-52
2022/09/06 10:48:44;;;;;;;1.70;0.65;;;;;;;16.11;41.06;100852.45;1599080;87;21972;-43
2022/09/06 10:51:44;;;;;;;1.75;0.70;;;;;;;16.21;41.18;100849.25;1594694;87;21091;-49
2022/09/06 10:54:24;;;;;;;0.98;0.88;;;;;;;16.22;41.34;100843.94;1593570;88;21539;-43
2022/09/06 10:57:00;;;;;;;;;;;;;;;16.22;41.65;100861.09;1602487;88;21595;-49
2022/09/06 10:59:37;;;;;;;2.83;0.62;;;;;;;16.07;41.23;100853.86;1604261;87;20346;-48
2022/09/06 11:02:54;;;;;;;1.17;0.70;;;;;;;15.88;41.78;100851.89;1604552;88;21629;-49
2022/09/06 11:05:33;;;;;;;2.60;0.85;;;;;;;15.80;42.05;100856.41;1601159;87;21410;-43
2022/09/06 11:08:03;;;;;;;0.82;0.68;;;;;;;15.85;42.74;100859.86;1577773;87;21094;-49
2022/09/06 11:10:33;;;;;;;1.57;0.80;;;;;;;15.95;42.17;100858.86;1598256;87;21387;-44
2022/09/06 11:13:07;;;;;;;3.65;0.88;;;;;;;16.00;41.99;100858.77;1597313;87;21084;-50
2022/09/06 11:15:47;;;;;;;4.97;0.80;;;;;;;15.98;41.64;100855.30;1599457;87;21091;-48
2022/09/06 11:18:55;;;;;;;4.03;0.78;;;;;;;15.88;42.15;100862.45;1605392;88;21397;-49
2022/09/06 11:21:58;;;;;;;1.20;0.53;;;;;;;15.83;41.91;100857.67;1603905;84;21364;31
2022/09/06 11:25:03;;;;;;;1.57;0.70;;;;;;;15.89;41.69;100855.86;1489636;94;21045;-52
2022/09/06 11:27:37;;;;;;;19.95;13.00;;;;;;;15.93;41.11;100858.86;1502489;93;21150;-44
2022/09/06 11:30:05;;;;;;;2.08;1.30;;;;;;;15.87;40.89;100855.42;1533214;92;21125;-45
2022/09/06 11:32:49;;;;;;;2.30;1.02;;;;;;;15.84;41.04;100856.36;1541370;91;21563;-44
2022/09/06 11:35:28;;;;;;;1.35;0.57;;;;;;;15.82;41.15;100854.16;1528238;91;21072;-42
2022/09/06 11:38:17;;;;;;;0.85;0.55;;;;;;;15.83;40.84;100848.44;1525813;91;21142;-44
2022/09/06 11:41:00;;;;;;;1.37;0.70;;;;;;;15.92;40.68;100844.38;1532073;92;21082;-49
2022/09/06 11:43:49;;;;;;;2.55;0.90;;;;;;;16.07;40.71;100841.98;1530496;90;21697;-42
2022/09/06 11:46:43;;;;;;;1.47;0.72;;;;;;;16.07;40.98;100833.62;1534255;91;21029;-51
2022/09/06 11:49:31;;;;;;;0.60;0.60;;;;;;;16.15;41.27;100830.86;1538405;91;21602;-42
2022/09/06 11:51:58;;;;;;;3.50;0.75;;;;;;;16.17;40.29;100835.21;1528420;91;21192;-41
2022/09/06 11:54:35;;;;;;;3.02;0.50;;;;;;;16.13;40.20;100824.30;1530595;92;21064;-44
2022/09/06 11:57:14;;;;;;;5.45;0.80;;;;;;;16.14;40.29;100827.35;1531108;91;21628;-44
2022/09/06 11:59:55;;;;;;;4.12;1.00;;;;;;;16.06;40.14;100828.34;1521064;91;21483;-45
2022/09/06 12:02:39;;;;;;;2.12;0.62;;;;;;;15.95;40.43;100828.52;1527523;92;21095;-56
2022/09/06 12:05:10;;;;;;;1.05;0.55;;;;;;;15.93;39.84;100827.64;1536322;91;21018;-56
2022/09/06 12:08:13;;;;;;;1.55;0.62;;;;;;;15.92;39.52;100824.58;1517947;92;21047;-56
2022/09/06 12:10:48;;;;;;;1.25;0.40;;;;;;;15.93;39.66;100831.59;1540131;91;21036;-43
2022/09/06 12:13:44;;;;;;;2.83;0.47;;;;;;;15.87;39.00;100821.13;1518583;92;21107;-56
2022/09/06 12:16:10;;;;;;;11.12;0.68;;;;;;;15.82;39.39;100823.82;1548131;91;21081;-45
2022/09/06 12:18:54;;;;;;;0.80;0.80;;;;;;;15.74;39.67;100818.23;1530881;92;21096;-56
2022/09/06 12:21:45;;;;;;;0.88;0.60;;;;;;;15.70;39.68;100826.63;1545011;91;21032;-45
2022/09/06 12:24:37;;;;;;;1.67;0.88;;;;;;;15.68;39.78;100823.14;1572014;90;21450;-55
2022/09/06 12:27:16;;;;;;;1.45;0.65;;;;;;;15.74;39.40;100825.70;1565927;90;21077;-56
2022/09/06 12:30:03;;;;;;;2.47;0.62;;;;;;;15.78;38.70;100823.91;1567346;90;21098;-46
2022/09/06 12:32:37;;;;;;;0.50;0.50;;;;;;;15.75;38.32;100822.16;1556558;90;21611;-45
2022/09/06 12:35:07;;;;;;;0.93;0.40;;;;;;;15.68;37.80;100820.05;1561216;91;21062;-45
2022/09/06 12:37:57;;;;;;;4.75;0.60;;;;;;;15.66;37.86;100812.62;1544259;91;21673;-45
2022/09/06 12:40:28;;;;;;;0.47;0.40;;;;;;;15.69;37.81;100814.33;1555949;90;21591;-45
2022/09/06 12:42:54;;;;;;;1.85;0.85;;;;;;;15.82;37.60;100822.95;1567176;90;21108;-44
2022/09/06 12:45:21;;;;;;;1.45;0.90;;;;;;;15.83;39.24;100819.00;1566296;90;21036;-44
2022/09/06 12:47:48;;;;;;;2.15;0.90;;;;;;;15.75;39.68;100820.84;1574309;90;21103;-52
2022/09/06 12:50:24;;;;;;;0.95;0.62;;;;;;;15.68;39.88;100817.42;1577684;90;21068;-42
2022/09/06 12:52:56;;;;;;;1.22;0.80;;;;;;;15.64;39.91;100816.15;1588992;88;21623;-42
2022/09/06 12:55:33;;;;;;;4.53;1.07;;;;;;;15.72;39.78;100819.58;1576297;90;21000;-44
2022/09/06 12:58:03;;;;;;;1.65;0.55;;;;;;;15.72;40.15;100815.63;1589511;89;21566;-45
2022/09/06 13:00:42;;;;;;;1.00;0.65;;;;;;;15.69;39.88;100815.20;1590423;90;21068;-56
2022/09/06 13:03:31;;;;;;;1.07;0.90;;;;;;;15.64;40.29;100815.70;1589580;89;21087;-44
2022/09/06 13:06:01;;;;;;;2.62;1.02;;;;;;;15.59;40.35;100817.48;1589781;90;21516;-44
2022/09/06 13:08:35;;;;;;;1.15;0.65;;;;;;;15.49;40.50;100816.32;1589199;89;21040;-56
2022/09/06 13:11:02;;;;;;;3.33;0.93;;;;;;;15.43;40.24;100815.95;1588387;90;20988;-44
2022/09/06 13:13:29;;;;;;;2.77;0.85;;;;;;;15.43;40.62;100815.50;1588056;89;21143;-44
2022/09/06 13:15:56;;;;;;;1.67;0.90;;;;;;;15.54;40.43;100821.06;1588338;90;21488;-56
2022/09/06 13:18:34;;;;;;;5.22;1.30;;;;;;;15.59;39.97;100820.13;1588170;89;21143;-55
